Tuesday, February 20, 2018, 10:41 AM EST
Back to Local

KSWF, Newburgh / Stewart

Location: New Windsor, NY, United States Lat: 41.5
Local Time: 10:41 AM EST (15:41 GMT) Lon: -74.1
Time Zone: US/Eastern Elev: 492 ft

Show me the last for .
Show Decoded

2018-02-20 10:15 METAR KSWF 201515Z 27005KT 6SM BR BKN008 OVC050 08/08 A3032 =
2018-02-20 09:45 METAR KSWF 201445Z 27005KT 6SM BR OVC005 08/08 A3032 =
2018-02-20 08:45 METAR KSWF 201345Z 00000KT 6SM BR OVC005 07/07 A3032 =
2018-02-20 06:45 METAR KSWF 201145Z 00000KT 2SM BR OVC004 05/05 A3031 =
2018-02-20 05:45 METAR KSWF 201045Z 00000KT 1/2SM R09/3000FT FG OVC003 05/05 A3029 =
2018-02-20 04:45 METAR KSWF 200945Z 00000KT 1SM R09/6000FT BR OVC005 05/05 A3027 =
2018-02-20 03:45 METAR KSWF 200845Z 00000KT 1SM R09/6000FT BR OVC005 05/05 A3027 =
2018-02-20 02:45 METAR KSWF 200745Z 00000KT 1/2SM R09/3500FT FG OVC003 04/04 A3029 =
2018-02-20 01:45 METAR KSWF 200645Z 00000KT 1/2SM R09/3500FT FG OVC003 04/04 A3029 =
2018-02-20 00:45 METAR KSWF 200545Z 00000KT 1SM R09/3500FT BR OVC003 04/04 A3029 =
2018-02-19 23:45 METAR KSWF 200445Z 00000KT 1SM R09/4500FT BR OVC003 04/04 A3031 =
2018-02-19 22:55 METAR KSWF 200355Z 00000KT 1SM R09/4000FT BR OVC004 04/04 A3031 =
2018-02-19 22:45 METAR KSWF 200345Z 00000KT 2SM BR OVC004 04/04 A3031 =
2018-02-19 22:35 METAR KSWF 200335Z 00000KT 2 1/2SM BR OVC004 04/04 A3031 =
2018-02-19 21:45 METAR KSWF 200245Z 00000KT 4SM BR OVC006 03/03 A3034 =
2018-02-19 20:45 METAR KSWF 200145Z 00000KT 2 1/2SM BR OVC006 04/04 A3034 =
2018-02-19 19:45 METAR KSWF 200045Z 00000KT 2 1/2SM -RA BR OVC005 04/04 A3035 =
2018-02-19 18:45 METAR KSWF 192345Z 29005KT 4SM BR OVC010 04/04 A3033 =
2018-02-19 18:25 METAR KSWF 192325Z 00000KT 4SM -RA BR BKN010 OVC012 04/04 A3033 =
2018-02-19 17:45 METAR KSWF 192245Z VRB05KT 4SM -RA BR OVC015 04/04 A3033 =
2018-02-19 16:45 METAR KSWF 192145Z VRB05KT 6SM -RA BR OVC020 05/04 A3034 =
2018-02-19 15:45 METAR KSWF 192045Z VRB05KT 10SM -RA OVC020 06/03 A3036 =
2018-02-19 14:45 METAR KSWF 191945Z VRB05KT 10SM OVC030 06/02 A3037 =
2018-02-19 13:45 METAR KSWF 191845Z VRB05KT 15SM BKN040 06/01 A3038 =
2018-02-19 12:45 METAR KSWF 191745Z 25005KT 15SM BKN040 06/01 A3042 =
2018-02-19 11:45 METAR KSWF 191645Z 25006KT 15SM SCT040 BKN070 05/M01 A3046 =
2018-02-19 10:45 METAR KSWF 191545Z 21006KT 15SM SCT040 BKN070 05/M01 A3047 =

Support USWX by starting your Amazon purchase here.